sensor_id;sensor_type;location;lat;lon;timestamp;temperature;humidity
3156;DHT22;1588;50.892;7.082;2022-08-11T00:03:47;18.80;99.90
3156;DHT22;1588;50.892;7.082;2022-08-11T00:08:51;18.80;99.90
3156;DHT22;1588;50.892;7.082;2022-08-11T00:13:56;18.70;99.90
3156;DHT22;1588;50.892;7.082;2022-08-11T00:18:59;18.60;99.90
3156;DHT22;1588;50.892;7.082;2022-08-11T00:24:02;18.50;99.90
3156;DHT22;1588;50.892;7.082;2022-08-11T00:29:14;18.40;99.90
3156;DHT22;1588;50.892;7.082;2022-08-11T00:34:18;18.40;99.90
3156;DHT22;1588;50.892;7.082;2022-08-11T00:39:43;18.20;99.90
3156;DHT22;1588;50.892;7.082;2022-08-11T00:44:59;18.00;99.90
3156;DHT22;1588;50.892;7.082;2022-08-11T00:50:12;17.80;99.90
3156;DHT22;1588;50.892;7.082;2022-08-11T00:55:54;17.70;99.90
3156;DHT22;1588;50.892;7.082;2022-08-11T01:01:13;17.70;99.90
3156;DHT22;1588;50.892;7.082;2022-08-11T01:06:47;17.50;99.90
3156;DHT22;1588;50.892;7.082;2022-08-11T01:12:18;17.40;99.90
3156;DHT22;1588;50.892;7.082;2022-08-11T01:29:27;17.10;99.90
3156;DHT22;1588;50.892;7.082;2022-08-11T01:46:12;16.80;99.90
3156;DHT22;1588;50.892;7.082;2022-08-11T01:51:26;16.70;99.90
3156;DHT22;1588;50.892;7.082;2022-08-11T01:56:48;16.60;99.90
3156;DHT22;1588;50.892;7.082;2022-08-11T02:07:55;16.50;99.90
3156;DHT22;1588;50.892;7.082;2022-08-11T02:13:06;16.40;99.90
3156;DHT22;1588;50.892;7.082;2022-08-11T02:18:22;16.40;99.90
3156;DHT22;1588;50.892;7.082;2022-08-11T02:23:50;16.10;99.90
3156;DHT22;1588;50.892;7.082;2022-08-11T02:29:00;16.10;99.90
3156;DHT22;1588;50.892;7.082;2022-08-11T02:34:11;16.10;99.90
3156;DHT22;1588;50.892;7.082;2022-08-11T02:39:19;16.00;99.90
3156;DHT22;1588;50.892;7.082;2022-08-11T02:44:28;16.00;99.90
3156;DHT22;1588;50.892;7.082;2022-08-11T02:49:41;15.90;99.90
3156;DHT22;1588;50.892;7.082;2022-08-11T02:55:13;15.90;99.90
3156;DHT22;1588;50.892;7.082;2022-08-11T03:00:19;15.80;99.90
3156;DHT22;1588;50.892;7.082;2022-08-11T03:05:52;15.60;99.90
3156;DHT22;1588;50.892;7.082;2022-08-11T03:11:06;15.60;99.90
3156;DHT22;1588;50.892;7.082;2022-08-11T03:16:35;15.40;99.90
3156;DHT22;1588;50.892;7.082;2022-08-11T03:22:01;15.30;99.90
3156;DHT22;1588;50.892;7.082;2022-08-11T03:27:07;15.30;99.90
3156;DHT22;1588;50.892;7.082;2022-08-11T03:32:23;15.30;99.90
3156;DHT22;1588;50.892;7.082;2022-08-11T03:37:40;15.10;99.90
3156;DHT22;1588;50.892;7.082;2022-08-11T03:42:59;15.10;99.90
3156;DHT22;1588;50.892;7.082;2022-08-11T03:48:13;15.10;99.90
3156;DHT22;1588;50.892;7.082;2022-08-11T03:53:34;15.00;99.90
3156;DHT22;1588;50.892;7.082;2022-08-11T03:59:04;15.00;99.90
3156;DHT22;1588;50.892;7.082;2022-08-11T04:04:36;15.00;99.90
3156;DHT22;1588;50.892;7.082;2022-08-11T04:15:54;14.80;99.90
3156;DHT22;1588;50.892;7.082;2022-08-11T04:21:20;14.80;99.90
3156;DHT22;1588;50.892;7.082;2022-08-11T04:32:25;14.70;99.90
3156;DHT22;1588;50.892;7.082;2022-08-11T04:43:30;14.70;99.90
3156;DHT22;1588;50.892;7.082;2022-08-11T04:49:11;14.70;99.90
3156;DHT22;1588;50.892;7.082;2022-08-11T04:54:47;14.80;99.90
3156;DHT22;1588;50.892;7.082;2022-08-11T05:00:13;14.80;99.90
3156;DHT22;1588;50.892;7.082;2022-08-11T05:05:56;14.80;99.90
3156;DHT22;1588;50.892;7.082;2022-08-11T05:11:21;14.90;99.90
3156;DHT22;1588;50.892;7.082;2022-08-11T05:16:33;15.00;99.90
3156;DHT22;1588;50.892;7.082;2022-08-11T05:21:56;15.20;99.90
3156;DHT22;1588;50.892;7.082;2022-08-11T05:27:18;15.20;99.90
3156;DHT22;1588;50.892;7.082;2022-08-11T05:32:40;15.50;99.90
3156;DHT22;1588;50.892;7.082;2022-08-11T05:38:02;15.90;99.90
3156;DHT22;1588;50.892;7.082;2022-08-11T05:43:28;16.30;99.90
3156;DHT22;1588;50.892;7.082;2022-08-11T05:48:49;16.70;99.90
3156;DHT22;1588;50.892;7.082;2022-08-11T05:54:15;17.10;99.90
3156;DHT22;1588;50.892;7.082;2022-08-11T05:59:35;17.60;99.90
3156;DHT22;1588;50.892;7.082;2022-08-11T06:04:38;18.00;99.90
3156;DHT22;1588;50.892;7.082;2022-08-11T06:09:47;18.40;99.90
3156;DHT22;1588;50.892;7.082;2022-08-11T06:14:55;18.80;99.90
3156;DHT22;1588;50.892;7.082;2022-08-11T06:19:59;19.30;99.90
3156;DHT22;1588;50.892;7.082;2022-08-11T06:25:05;19.90;99.90
3156;DHT22;1588;50.892;7.082;2022-08-11T06:30:09;20.50;99.90
3156;DHT22;1588;50.892;7.082;2022-08-11T06:35:22;21.10;99.90
3156;DHT22;1588;50.892;7.082;2022-08-11T06:40:34;21.90;99.90
3156;DHT22;1588;50.892;7.082;2022-08-11T06:45:45;22.50;99.90
3156;DHT22;1588;50.892;7.082;2022-08-11T06:50:52;23.10;99.90
3156;DHT22;1588;50.892;7.082;2022-08-11T06:56:15;23.70;99.90
3156;DHT22;1588;50.892;7.082;2022-08-11T07:01:44;24.40;99.90
3156;DHT22;1588;50.892;7.082;2022-08-11T07:06:57;25.00;99.90
3156;DHT22;1588;50.892;7.082;2022-08-11T07:12:37;25.10;99.90
3156;DHT22;1588;50.892;7.082;2022-08-11T07:18:21;25.50;99.90
3156;DHT22;1588;50.892;7.082;2022-08-11T07:23:42;25.80;99.90
3156;DHT22;1588;50.892;7.082;2022-08-11T07:29:04;26.30;99.00
3156;DHT22;1588;50.892;7.082;2022-08-11T07:34:15;26.80;98.60
3156;DHT22;1588;50.892;7.082;2022-08-11T07:39:21;27.10;97.20
3156;DHT22;1588;50.892;7.082;2022-08-11T07:44:27;27.40;96.60
3156;DHT22;1588;50.892;7.082;2022-08-11T07:49:32;27.30;95.70
3156;DHT22;1588;50.892;7.082;2022-08-11T07:54:55;28.00;95.40
3156;DHT22;1588;50.892;7.082;2022-08-11T07:59:59;28.40;94.70
3156;DHT22;1588;50.892;7.082;2022-08-11T08:05:22;28.90;93.60
3156;DHT22;1588;50.892;7.082;2022-08-11T08:10:42;29.60;94.10
3156;DHT22;1588;50.892;7.082;2022-08-11T08:16:05;29.50;93.40
3156;DHT22;1588;50.892;7.082;2022-08-11T08:21:25;29.60;91.90
3156;DHT22;1588;50.892;7.082;2022-08-11T08:26:28;30.30;92.20
3156;DHT22;1588;50.892;7.082;2022-08-11T08:31:49;31.00;91.90
3156;DHT22;1588;50.892;7.082;2022-08-11T08:36:52;30.60;90.60
3156;DHT22;1588;50.892;7.082;2022-08-11T08:41:56;31.20;91.40
3156;DHT22;1588;50.892;7.082;2022-08-11T08:47:03;31.60;91.10
3156;DHT22;1588;50.892;7.082;2022-08-11T08:52:08;31.80;88.40
3156;DHT22;1588;50.892;7.082;2022-08-11T08:57:14;32.10;88.70
3156;DHT22;1588;50.892;7.082;2022-08-11T09:02:24;32.30;88.20
3156;DHT22;1588;50.892;7.082;2022-08-11T09:07:27;32.10;85.60
3156;DHT22;1588;50.892;7.082;2022-08-11T09:12:30;32.90;83.40
3156;DHT22;1588;50.892;7.082;2022-08-11T09:17:38;33.40;82.80
3156;DHT22;1588;50.892;7.082;2022-08-11T09:22:42;33.50;83.20
3156;DHT22;1588;50.892;7.082;2022-08-11T09:28:03;33.90;82.30
3156;DHT22;1588;50.892;7.082;2022-08-11T09:33:10;34.00;78.10
3156;DHT22;1588;50.892;7.082;2022-08-11T09:38:14;33.70;78.70
3156;DHT22;1588;50.892;7.082;2022-08-11T09:43:39;34.00;77.80
3156;DHT22;1588;50.892;7.082;2022-08-11T09:49:04;33.30;78.30
3156;DHT22;1588;50.892;7.082;2022-08-11T09:54:07;34.20;74.70
3156;DHT22;1588;50.892;7.082;2022-08-11T09:59:09;34.40;74.10
3156;DHT22;1588;50.892;7.082;2022-08-11T10:04:15;34.60;75.70
3156;DHT22;1588;50.892;7.082;2022-08-11T10:09:19;34.80;73.20
3156;DHT22;1588;50.892;7.082;2022-08-11T10:14:26;35.10;73.10
3156;DHT22;1588;50.892;7.082;2022-08-11T10:19:50;35.20;74.40
3156;DHT22;1588;50.892;7.082;2022-08-11T10:24:55;34.30;69.20
3156;DHT22;1588;50.892;7.082;2022-08-11T10:30:15;34.20;69.40
3156;DHT22;1588;50.892;7.082;2022-08-11T10:35:37;34.00;70.90
3156;DHT22;1588;50.892;7.082;2022-08-11T10:40:44;34.20;68.80
3156;DHT22;1588;50.892;7.082;2022-08-11T10:45:47;34.20;68.60
3156;DHT22;1588;50.892;7.082;2022-08-11T10:51:08;34.70;69.70
3156;DHT22;1588;50.892;7.082;2022-08-11T10:56:18;34.80;67.10
3156;DHT22;1588;50.892;7.082;2022-08-11T11:01:40;33.80;68.20
3156;DHT22;1588;50.892;7.082;2022-08-11T11:06:54;34.20;69.40
3156;DHT22;1588;50.892;7.082;2022-08-11T11:12:12;34.70;68.10
3156;DHT22;1588;50.892;7.082;2022-08-11T11:17:36;34.40;67.90
3156;DHT22;1588;50.892;7.082;2022-08-11T11:23:07;34.30;64.60
3156;DHT22;1588;50.892;7.082;2022-08-11T11:28:49;33.80;65.80
3156;DHT22;1588;50.892;7.082;2022-08-11T11:34:11;33.70;67.30
3156;DHT22;1588;50.892;7.082;2022-08-11T11:39:20;34.20;70.00
3156;DHT22;1588;50.892;7.082;2022-08-11T11:44:23;33.70;64.80
3156;DHT22;1588;50.892;7.082;2022-08-11T11:49:30;33.60;67.00
3156;DHT22;1588;50.892;7.082;2022-08-11T11:54:44;33.40;66.30
3156;DHT22;1588;50.892;7.082;2022-08-11T11:59:51;33.70;67.30
3156;DHT22;1588;50.892;7.082;2022-08-11T12:05:11;33.50;69.40
3156;DHT22;1588;50.892;7.082;2022-08-11T12:10:16;33.60;68.40
3156;DHT22;1588;50.892;7.082;2022-08-11T12:15:19;33.30;65.10
3156;DHT22;1588;50.892;7.082;2022-08-11T12:20:22;33.40;67.70
3156;DHT22;1588;50.892;7.082;2022-08-11T12:25:26;33.20;65.50
3156;DHT22;1588;50.892;7.082;2022-08-11T12:30:45;33.10;66.20
3156;DHT22;1588;50.892;7.082;2022-08-11T12:35:55;32.80;66.60
3156;DHT22;1588;50.892;7.082;2022-08-11T12:40:59;32.90;66.40
3156;DHT22;1588;50.892;7.082;2022-08-11T12:46:21;32.90;67.60
3156;DHT22;1588;50.892;7.082;2022-08-11T12:51:24;32.90;66.50
3156;DHT22;1588;50.892;7.082;2022-08-11T12:56:51;32.80;67.90
3156;DHT22;1588;50.892;7.082;2022-08-11T13:02:15;33.20;68.50
3156;DHT22;1588;50.892;7.082;2022-08-11T13:07:36;33.30;66.80
3156;DHT22;1588;50.892;7.082;2022-08-11T13:12:42;32.80;67.30
3156;DHT22;1588;50.892;7.082;2022-08-11T13:17:53;32.80;67.80
3156;DHT22;1588;50.892;7.082;2022-08-11T13:22:57;33.10;69.30
3156;DHT22;1588;50.892;7.082;2022-08-11T13:28:01;33.00;67.80
3156;DHT22;1588;50.892;7.082;2022-08-11T13:33:05;32.70;68.30
3156;DHT22;1588;50.892;7.082;2022-08-11T13:38:09;32.50;69.10
3156;DHT22;1588;50.892;7.082;2022-08-11T13:43:14;32.70;70.20
3156;DHT22;1588;50.892;7.082;2022-08-11T13:48:17;32.50;67.70
3156;DHT22;1588;50.892;7.082;2022-08-11T13:53:21;32.30;66.30
3156;DHT22;1588;50.892;7.082;2022-08-11T13:58:27;32.00;66.50
3156;DHT22;1588;50.892;7.082;2022-08-11T14:03:31;32.00;69.10
3156;DHT22;1588;50.892;7.082;2022-08-11T14:08:37;32.30;68.80
3156;DHT22;1588;50.892;7.082;2022-08-11T14:13:44;32.60;68.40
3156;DHT22;1588;50.892;7.082;2022-08-11T14:18:50;32.90;67.00
3156;DHT22;1588;50.892;7.082;2022-08-11T14:23:57;32.70;66.20
3156;DHT22;1588;50.892;7.082;2022-08-11T14:29:06;32.40;66.00
3156;DHT22;1588;50.892;7.082;2022-08-11T14:34:10;32.30;67.10
3156;DHT22;1588;50.892;7.082;2022-08-11T14:39:25;32.40;66.80
3156;DHT22;1588;50.892;7.082;2022-08-11T14:44:30;32.40;65.50
3156;DHT22;1588;50.892;7.082;2022-08-11T14:49:54;32.40;66.30
3156;DHT22;1588;50.892;7.082;2022-08-11T14:54:58;32.40;66.30
3156;DHT22;1588;50.892;7.082;2022-08-11T15:00:19;32.20;66.50
3156;DHT22;1588;50.892;7.082;2022-08-11T15:05:23;32.30;66.70
3156;DHT22;1588;50.892;7.082;2022-08-11T15:10:26;32.60;65.40
3156;DHT22;1588;50.892;7.082;2022-08-11T15:15:31;32.20;64.50
3156;DHT22;1588;50.892;7.082;2022-08-11T15:20:51;32.10;66.00
3156;DHT22;1588;50.892;7.082;2022-08-11T15:26:13;32.20;66.40
3156;DHT22;1588;50.892;7.082;2022-08-11T15:31:20;32.00;68.40
3156;DHT22;1588;50.892;7.082;2022-08-11T15:36:38;31.90;66.90
3156;DHT22;1588;50.892;7.082;2022-08-11T15:42:02;31.90;67.00
3156;DHT22;1588;50.892;7.082;2022-08-11T15:47:27;31.80;66.70
3156;DHT22;1588;50.892;7.082;2022-08-11T15:52:46;31.80;67.40
3156;DHT22;1588;50.892;7.082;2022-08-11T15:57:52;31.80;66.60
3156;DHT22;1588;50.892;7.082;2022-08-11T16:03:15;31.70;67.30
3156;DHT22;1588;50.892;7.082;2022-08-11T16:08:38;31.60;66.90
3156;DHT22;1588;50.892;7.082;2022-08-11T16:13:41;31.50;67.80
3156;DHT22;1588;50.892;7.082;2022-08-11T16:19:03;31.50;67.50
3156;DHT22;1588;50.892;7.082;2022-08-11T16:24:11;31.40;67.20
3156;DHT22;1588;50.892;7.082;2022-08-11T16:29:18;31.50;66.10
3156;DHT22;1588;50.892;7.082;2022-08-11T16:34:23;31.40;66.50
3156;DHT22;1588;50.892;7.082;2022-08-11T16:39:43;31.40;67.20
3156;DHT22;1588;50.892;7.082;2022-08-11T16:44:46;31.40;66.60
3156;DHT22;1588;50.892;7.082;2022-08-11T16:50:08;31.20;68.60
3156;DHT22;1588;50.892;7.082;2022-08-11T16:55:10;31.20;67.40
3156;DHT22;1588;50.892;7.082;2022-08-11T17:00:15;31.20;68.60
3156;DHT22;1588;50.892;7.082;2022-08-11T17:05:22;31.30;68.10
3156;DHT22;1588;50.892;7.082;2022-08-11T17:10:47;31.10;69.10
3156;DHT22;1588;50.892;7.082;2022-08-11T17:16:16;31.20;67.60
3156;DHT22;1588;50.892;7.082;2022-08-11T17:21:25;31.00;69.60
3156;DHT22;1588;50.892;7.082;2022-08-11T17:26:31;30.80;69.00
3156;DHT22;1588;50.892;7.082;2022-08-11T17:31:48;30.80;68.40
3156;DHT22;1588;50.892;7.082;2022-08-11T17:37:11;30.60;69.70
3156;DHT22;1588;50.892;7.082;2022-08-11T17:42:14;30.40;70.40
3156;DHT22;1588;50.892;7.082;2022-08-11T17:47:35;30.40;69.70
3156;DHT22;1588;50.892;7.082;2022-08-11T17:52:58;30.20;70.30
3156;DHT22;1588;50.892;7.082;2022-08-11T17:58:18;30.00;71.40
3156;DHT22;1588;50.892;7.082;2022-08-11T18:03:40;29.70;72.60
3156;DHT22;1588;50.892;7.082;2022-08-11T18:08:45;29.50;72.20
3156;DHT22;1588;50.892;7.082;2022-08-11T18:14:08;29.30;73.70
3156;DHT22;1588;50.892;7.082;2022-08-11T18:19:28;29.10;75.30
3156;DHT22;1588;50.892;7.082;2022-08-11T18:24:53;28.80;76.10
3156;DHT22;1588;50.892;7.082;2022-08-11T18:30:14;28.50;78.10
3156;DHT22;1588;50.892;7.082;2022-08-11T18:35:35;28.20;77.90
3156;DHT22;1588;50.892;7.082;2022-08-11T18:40:58;27.90;78.50
3156;DHT22;1588;50.892;7.082;2022-08-11T18:46:21;27.60;82.30
3156;DHT22;1588;50.892;7.082;2022-08-11T18:51:45;27.20;84.10
3156;DHT22;1588;50.892;7.082;2022-08-11T18:57:08;26.80;83.60
3156;DHT22;1588;50.892;7.082;2022-08-11T19:02:30;26.40;86.10
3156;DHT22;1588;50.892;7.082;2022-08-11T19:07:50;26.10;84.90
3156;DHT22;1588;50.892;7.082;2022-08-11T19:13:14;25.80;89.10
3156;DHT22;1588;50.892;7.082;2022-08-11T19:18:40;25.50;87.00
3156;DHT22;1588;50.892;7.082;2022-08-11T19:24:02;25.20;89.30
3156;DHT22;1588;50.892;7.082;2022-08-11T19:29:25;25.00;90.50
3156;DHT22;1588;50.892;7.082;2022-08-11T19:34:46;24.70;91.50
3156;DHT22;1588;50.892;7.082;2022-08-11T19:40:08;24.50;91.10
3156;DHT22;1588;50.892;7.082;2022-08-11T19:45:30;24.20;91.60
3156;DHT22;1588;50.892;7.082;2022-08-11T19:50:51;24.00;91.60
3156;DHT22;1588;50.892;7.082;2022-08-11T19:56:13;23.90;91.60
3156;DHT22;1588;50.892;7.082;2022-08-11T20:01:35;23.80;91.00
3156;DHT22;1588;50.892;7.082;2022-08-11T20:06:55;23.80;91.40
3156;DHT22;1588;50.892;7.082;2022-08-11T20:12:20;23.70;92.20
3156;DHT22;1588;50.892;7.082;2022-08-11T20:17:42;23.60;93.10
3156;DHT22;1588;50.892;7.082;2022-08-11T20:23:03;23.40;92.70
3156;DHT22;1588;50.892;7.082;2022-08-11T20:28:25;23.30;92.00
3156;DHT22;1588;50.892;7.082;2022-08-11T20:33:47;23.30;92.00
3156;DHT22;1588;50.892;7.082;2022-08-11T20:39:07;23.30;92.10
3156;DHT22;1588;50.892;7.082;2022-08-11T20:44:29;23.30;92.90
3156;DHT22;1588;50.892;7.082;2022-08-11T20:49:53;23.10;93.30
3156;DHT22;1588;50.892;7.082;2022-08-11T20:55:15;22.90;93.60
3156;DHT22;1588;50.892;7.082;2022-08-11T21:00:38;22.90;93.40
3156;DHT22;1588;50.892;7.082;2022-08-11T21:06:00;22.80;93.60
3156;DHT22;1588;50.892;7.082;2022-08-11T21:11:21;22.80;93.50
3156;DHT22;1588;50.892;7.082;2022-08-11T21:16:46;22.70;93.70
3156;DHT22;1588;50.892;7.082;2022-08-11T21:22:11;22.70;93.90
3156;DHT22;1588;50.892;7.082;2022-08-11T21:27:37;22.60;93.00
3156;DHT22;1588;50.892;7.082;2022-08-11T21:32:58;22.40;94.90
3156;DHT22;1588;50.892;7.082;2022-08-11T21:38:20;22.30;94.70
3156;DHT22;1588;50.892;7.082;2022-08-11T21:43:41;22.10;95.00
3156;DHT22;1588;50.892;7.082;2022-08-11T21:49:02;21.90;95.60
3156;DHT22;1588;50.892;7.082;2022-08-11T21:54:24;21.80;96.10
3156;DHT22;1588;50.892;7.082;2022-08-11T21:59:50;21.60;95.80
3156;DHT22;1588;50.892;7.082;2022-08-11T22:05:10;21.50;96.60
3156;DHT22;1588;50.892;7.082;2022-08-11T22:10:32;21.30;96.50
3156;DHT22;1588;50.892;7.082;2022-08-11T22:16:02;21.10;96.80
3156;DHT22;1588;50.892;7.082;2022-08-11T22:21:22;20.90;97.50
3156;DHT22;1588;50.892;7.082;2022-08-11T22:26:44;20.70;98.30
3156;DHT22;1588;50.892;7.082;2022-08-11T22:32:04;20.60;98.70
3156;DHT22;1588;50.892;7.082;2022-08-11T22:37:25;20.40;99.30
3156;DHT22;1588;50.892;7.082;2022-08-11T22:42:47;20.30;99.40
3156;DHT22;1588;50.892;7.082;2022-08-11T22:48:08;20.20;99.90
3156;DHT22;1588;50.892;7.082;2022-08-11T22:53:29;20.00;99.90
3156;DHT22;1588;50.892;7.082;2022-08-11T22:58:51;20.00;99.90
3156;DHT22;1588;50.892;7.082;2022-08-11T23:04:12;19.90;99.90
3156;DHT22;1588;50.892;7.082;2022-08-11T23:09:32;19.80;99.90
3156;DHT22;1588;50.892;7.082;2022-08-11T23:14:54;19.70;99.90
3156;DHT22;1588;50.892;7.082;2022-08-11T23:20:20;19.60;99.90
3156;DHT22;1588;50.892;7.082;2022-08-11T23:25:41;19.50;99.90
3156;DHT22;1588;50.892;7.082;2022-08-11T23:31:03;19.40;99.90
3156;DHT22;1588;50.892;7.082;2022-08-11T23:36:23;19.30;99.90
3156;DHT22;1588;50.892;7.082;2022-08-11T23:41:43;19.20;99.90
3156;DHT22;1588;50.892;7.082;2022-08-11T23:47:05;19.10;99.90
3156;DHT22;1588;50.892;7.082;2022-08-11T23:52:25;19.00;99.90
3156;DHT22;1588;50.892;7.082;2022-08-11T23:57:45;18.80;99.90
